createdAt,value
2022-08-30T00:00:11.113Z,1.00
2022-08-30T00:01:14.136Z,0.80
2022-08-30T00:02:11.065Z,0.80
2022-08-30T00:03:11.228Z,0.80
2022-08-30T00:04:10.966Z,1.00
2022-08-30T00:05:11.244Z,0.90
2022-08-30T00:06:10.961Z,0.80
2022-08-30T00:07:10.983Z,0.90
2022-08-30T00:08:10.927Z,1.20
2022-08-30T00:09:10.904Z,1.10
2022-08-30T00:10:10.907Z,1.10
2022-08-30T00:11:10.892Z,1.00
2022-08-30T00:12:11.164Z,1.00
2022-08-30T00:13:10.962Z,0.90
2022-08-30T00:14:10.869Z,1.10
2022-08-30T00:15:10.843Z,1.50
2022-08-30T00:16:11.509Z,0.90
2022-08-30T00:17:10.927Z,1.20
2022-08-30T00:18:10.889Z,1.00
2022-08-30T00:19:11.218Z,0.90
2022-08-30T00:20:10.811Z,1.00
2022-08-30T00:21:10.789Z,0.80
2022-08-30T00:22:10.822Z,1.00
2022-08-30T00:23:10.808Z,1.50
2022-08-30T00:24:10.787Z,1.10
2022-08-30T00:25:11.206Z,1.20
2022-08-30T00:26:10.846Z,1.10
2022-08-30T00:27:10.869Z,1.00
2022-08-30T00:28:10.762Z,0.90
2022-08-30T00:29:10.806Z,0.90
2022-08-30T00:30:10.805Z,1.10
2022-08-30T00:31:10.835Z,1.10
2022-08-30T00:32:10.710Z,0.90
2022-08-30T00:33:10.688Z,1.10
2022-08-30T00:34:10.704Z,0.90
2022-08-30T00:35:10.685Z,1.40
2022-08-30T00:36:10.627Z,0.90
2022-08-30T00:37:11.008Z,1.10
2022-08-30T00:38:10.647Z,1.30
2022-08-30T00:39:10.598Z,1.20
2022-08-30T00:40:10.683Z,1.10
2022-08-30T00:41:10.667Z,1.00
2022-08-30T00:42:10.597Z,1.30
2022-08-30T00:43:13.870Z,0.90
2022-08-30T00:44:10.542Z,1.10
2022-08-30T00:45:10.524Z,1.00
2022-08-30T00:46:10.638Z,1.10
2022-08-30T00:47:10.497Z,1.10
2022-08-30T00:48:10.498Z,1.30
2022-08-30T00:49:10.801Z,1.10
2022-08-30T00:50:10.485Z,1.00
2022-08-30T00:51:10.459Z,1.00
2022-08-30T00:52:10.475Z,1.20
2022-08-30T00:53:10.444Z,1.00
2022-08-30T00:54:10.449Z,1.20
2022-08-30T00:55:10.451Z,0.80
2022-08-30T00:56:10.719Z,1.20
2022-08-30T00:57:10.391Z,1.10
2022-08-30T00:58:10.400Z,1.10
2022-08-30T00:59:10.380Z,0.90
2022-08-30T01:00:10.385Z,0.90
2022-08-30T01:01:10.477Z,1.00
2022-08-30T01:02:10.433Z,0.90
2022-08-30T01:03:10.609Z,1.20
2022-08-30T01:04:10.327Z,1.20
2022-08-30T01:05:10.322Z,1.10
2022-08-30T01:06:10.315Z,1.10
2022-08-30T01:07:10.335Z,1.30
2022-08-30T01:08:10.282Z,1.20
2022-08-30T01:09:10.274Z,1.00
2022-08-30T01:10:10.576Z,1.40
2022-08-30T01:11:10.249Z,0.90
2022-08-30T01:12:10.244Z,1.10
2022-08-30T01:13:10.261Z,1.10
2022-08-30T01:14:10.216Z,0.80
2022-08-30T01:15:10.208Z,1.30
2022-08-30T01:16:10.287Z,1.00
2022-08-30T01:17:10.542Z,1.10
2022-08-30T01:18:10.211Z,1.00
2022-08-30T01:19:10.194Z,0.90
2022-08-30T01:20:10.162Z,1.40
2022-08-30T01:21:10.173Z,0.80
2022-08-30T01:22:10.162Z,0.90
2022-08-30T01:23:10.126Z,0.90
2022-08-30T01:24:10.392Z,1.00
2022-08-30T01:25:10.191Z,1.30
2022-08-30T01:26:10.117Z,1.40
2022-08-30T01:27:10.086Z,1.40
2022-08-30T01:28:10.071Z,1.10
2022-08-30T01:29:10.060Z,0.90
2022-08-30T01:30:10.060Z,1.40
2022-08-30T01:31:10.439Z,1.20
2022-08-30T01:32:10.020Z,1.10
2022-08-30T01:33:10.070Z,1.40
2022-08-30T01:34:10.002Z,1.20
2022-08-30T01:35:10.008Z,0.90
2022-08-30T01:36:09.980Z,1.00
2022-08-30T01:37:10.010Z,1.00
2022-08-30T01:38:10.240Z,1.10
2022-08-30T01:39:09.950Z,1.20
2022-08-30T01:40:09.975Z,0.90
2022-08-30T01:41:09.924Z,1.30
2022-08-30T01:42:09.917Z,0.90
2022-08-30T01:43:09.938Z,1.00
2022-08-30T01:44:09.919Z,1.50
2022-08-30T01:45:10.179Z,1.20
2022-08-30T01:46:09.919Z,0.80
2022-08-30T01:47:09.858Z,1.20
2022-08-30T01:48:09.854Z,1.00
2022-08-30T01:49:09.884Z,0.90
2022-08-30T01:50:09.858Z,0.90
2022-08-30T01:51:09.842Z,0.90
2022-08-30T01:52:10.093Z,1.00
2022-08-30T01:53:13.182Z,1.10
2022-08-30T01:54:09.799Z,1.10
2022-08-30T01:55:09.806Z,1.20
2022-08-30T01:56:09.766Z,1.30
2022-08-30T01:57:09.743Z,0.80
2022-08-30T01:58:09.756Z,0.80
2022-08-30T01:59:10.011Z,1.30
2022-08-30T02:00:09.722Z,1.10
2022-08-30T02:01:09.803Z,0.80
2022-08-30T02:02:09.713Z,1.10
2022-08-30T02:03:09.695Z,1.10
2022-08-30T02:04:09.780Z,0.90
2022-08-30T02:05:09.667Z,1.00
2022-08-30T02:06:09.943Z,1.10
2022-08-30T02:07:09.685Z,1.10
2022-08-30T02:08:09.636Z,1.80
2022-08-30T02:09:09.662Z,1.20
2022-08-30T02:10:09.627Z,1.50
2022-08-30T02:11:09.605Z,1.10
2022-08-30T02:12:09.597Z,1.20
2022-08-30T02:13:09.892Z,0.90
2022-08-30T02:14:09.606Z,1.00
2022-08-30T02:15:09.573Z,0.90
2022-08-30T02:16:09.551Z,1.40
2022-08-30T02:17:09.558Z,1.20
2022-08-30T02:18:09.538Z,1.20
2022-08-30T02:19:09.547Z,1.40
2022-08-30T02:20:09.801Z,1.20
2022-08-30T02:21:09.494Z,1.00
2022-08-30T02:22:09.522Z,1.40
2022-08-30T02:23:09.478Z,1.20
2022-08-30T02:24:09.499Z,1.10
2022-08-30T02:25:11.265Z,1.10
2022-08-30T02:26:09.452Z,1.10
2022-08-30T02:27:09.714Z,1.20
2022-08-30T02:28:09.452Z,1.20
2022-08-30T02:29:09.420Z,1.20
2022-08-30T02:30:09.404Z,1.00
2022-08-30T02:31:09.485Z,0.80
2022-08-30T02:32:09.380Z,1.30
2022-08-30T02:33:09.435Z,1.10
2022-08-30T02:34:09.656Z,1.30
2022-08-30T02:35:09.352Z,1.30
2022-08-30T02:36:09.352Z,1.80
2022-08-30T02:37:09.376Z,1.10
2022-08-30T02:38:09.328Z,1.20
2022-08-30T02:39:09.337Z,1.30
2022-08-30T02:40:09.378Z,1.10
2022-08-30T02:41:09.559Z,1.30
2022-08-30T02:42:09.284Z,1.20
2022-08-30T02:43:09.371Z,1.20
2022-08-30T02:44:09.265Z,1.50
2022-08-30T02:45:09.251Z,1.00
2022-08-30T02:46:09.306Z,1.30
2022-08-30T02:47:09.229Z,1.00
2022-08-30T02:48:09.499Z,1.20
2022-08-30T02:49:32.203Z,1.40
2022-08-30T02:50:09.197Z,1.20
2022-08-30T02:51:09.565Z,1.20
2022-08-30T02:52:09.180Z,1.40
2022-08-30T02:53:09.411Z,1.40
2022-08-30T02:54:09.154Z,1.20
2022-08-30T02:55:09.438Z,1.30
2022-08-30T02:56:09.149Z,1.20
2022-08-30T02:57:15.208Z,1.20
2022-08-30T02:58:09.110Z,1.40
2022-08-30T02:59:09.087Z,1.50
2022-08-30T03:00:09.098Z,1.60
2022-08-30T03:01:09.167Z,1.40
2022-08-30T03:02:09.335Z,1.40
2022-08-30T03:03:09.115Z,1.40
2022-08-30T03:04:09.035Z,1.40
2022-08-30T03:05:09.026Z,1.30
2022-08-30T03:06:09.016Z,1.30
2022-08-30T03:07:09.047Z,1.20
2022-08-30T03:08:09.000Z,1.30
2022-08-30T03:09:09.262Z,1.20
2022-08-30T03:10:08.985Z,1.30
2022-08-30T03:11:08.966Z,1.60
2022-08-30T03:12:08.960Z,1.10
2022-08-30T03:13:09.077Z,1.30
2022-08-30T03:14:08.952Z,1.50
2022-08-30T03:15:08.927Z,1.30
2022-08-30T03:16:09.242Z,1.20
2022-08-30T03:17:15.588Z,1.40
2022-08-30T03:18:08.907Z,1.50
2022-08-30T03:19:08.924Z,1.30
2022-08-30T03:20:08.882Z,1.50
2022-08-30T03:21:08.873Z,1.30
2022-08-30T03:22:08.850Z,1.70
2022-08-30T03:23:09.156Z,1.40
2022-08-30T03:24:08.834Z,1.60
2022-08-30T03:25:08.865Z,1.40
2022-08-30T03:26:08.813Z,1.40
2022-08-30T03:27:08.799Z,1.30
2022-08-30T03:28:08.791Z,1.40
2022-08-30T03:29:08.782Z,1.70
2022-08-30T03:30:10.051Z,1.30
2022-08-30T03:31:08.789Z,1.50
2022-08-30T03:32:08.772Z,1.40
2022-08-30T03:33:08.766Z,1.50
2022-08-30T03:34:08.726Z,1.60
2022-08-30T03:35:08.759Z,1.50
2022-08-30T03:36:08.728Z,1.30
2022-08-30T03:37:09.025Z,1.20
2022-08-30T03:38:08.688Z,1.30
2022-08-30T03:39:08.665Z,1.70
2022-08-30T03:40:08.754Z,1.80
2022-08-30T03:41:09.164Z,1.80
2022-08-30T03:42:08.652Z,1.40
2022-08-30T03:43:08.685Z,1.80
2022-08-30T03:44:08.901Z,2.00
2022-08-30T03:45:08.611Z,1.50
2022-08-30T03:46:08.687Z,1.20
2022-08-30T03:47:08.609Z,1.70
2022-08-30T03:48:08.585Z,1.70
2022-08-30T03:49:08.602Z,1.60
2022-08-30T03:50:08.557Z,2.00
2022-08-30T03:51:08.810Z,1.40
2022-08-30T03:52:08.535Z,1.40
2022-08-30T03:53:08.517Z,1.60
2022-08-30T03:54:08.517Z,1.40
2022-08-30T03:55:08.525Z,1.50
2022-08-30T03:56:08.476Z,1.30
2022-08-30T03:57:08.483Z,1.40
2022-08-30T03:58:08.479Z,1.60
2022-08-30T03:59:08.479Z,1.30
2022-08-30T04:00:08.463Z,1.50
2022-08-30T04:01:08.504Z,1.80
2022-08-30T04:02:08.507Z,1.30
2022-08-30T04:03:08.427Z,1.20
2022-08-30T04:04:08.687Z,1.50
2022-08-30T04:05:08.413Z,1.50
2022-08-30T04:06:08.381Z,1.60
2022-08-30T04:07:08.396Z,1.40
2022-08-30T04:08:08.368Z,1.50
2022-08-30T04:09:08.357Z,1.70
2022-08-30T04:10:08.333Z,1.60
2022-08-30T04:11:08.325Z,1.50
2022-08-30T04:12:08.313Z,1.50
2022-08-30T04:13:08.413Z,1.50
2022-08-30T04:14:08.297Z,1.80
2022-08-30T04:15:08.295Z,1.70
2022-08-30T04:16:08.610Z,1.60
2022-08-30T04:17:08.268Z,1.70
2022-08-30T04:18:08.289Z,1.60
2022-08-30T04:19:08.301Z,1.40
2022-08-30T04:20:08.226Z,1.50
2022-08-30T04:21:12.369Z,1.40
2022-08-30T04:22:08.245Z,1.80
2022-08-30T04:23:08.309Z,2.00
2022-08-30T04:24:08.211Z,1.40
2022-08-30T04:25:08.235Z,1.60
2022-08-30T04:26:08.165Z,1.60
2022-08-30T04:27:08.172Z,1.10
2022-08-30T04:28:08.420Z,1.50
2022-08-30T04:29:08.136Z,1.60
2022-08-30T04:30:08.124Z,1.60
2022-08-30T04:31:08.203Z,1.90
2022-08-30T04:32:08.152Z,1.50
2022-08-30T04:33:08.096Z,2.00
2022-08-30T04:34:08.070Z,1.50
2022-08-30T04:35:08.347Z,1.40
2022-08-30T04:36:08.089Z,1.60
2022-08-30T04:37:09.885Z,1.20
2022-08-30T04:38:08.065Z,1.20
2022-08-30T04:39:08.024Z,1.50
2022-08-30T04:40:08.128Z,1.60
2022-08-30T04:41:08.012Z,1.00
2022-08-30T04:42:08.287Z,1.40
2022-08-30T04:43:08.027Z,1.50
2022-08-30T04:44:07.970Z,1.30
2022-08-30T04:45:07.965Z,1.20
2022-08-30T04:46:08.011Z,1.00
2022-08-30T04:47:07.948Z,2.10
2022-08-30T04:48:07.928Z,1.40
2022-08-30T04:49:08.265Z,1.20
2022-08-30T04:50:07.906Z,1.50
2022-08-30T04:51:07.914Z,1.40
2022-08-30T04:52:07.894Z,1.30
2022-08-30T04:53:07.899Z,1.30
2022-08-30T04:54:07.863Z,1.50
2022-08-30T04:55:07.921Z,1.70
2022-08-30T04:56:08.150Z,1.10
2022-08-30T04:57:07.837Z,1.20
2022-08-30T04:58:07.870Z,1.50
2022-08-30T04:59:07.819Z,1.30
2022-08-30T05:00:07.815Z,1.50
2022-08-30T05:01:07.915Z,1.40
2022-08-30T05:02:09.009Z,1.20
2022-08-30T05:03:08.070Z,1.20
2022-08-30T05:04:07.755Z,1.20
2022-08-30T05:05:07.771Z,1.40
2022-08-30T05:06:07.730Z,1.10
2022-08-30T05:07:07.773Z,1.00
2022-08-30T05:08:07.753Z,1.40
2022-08-30T05:09:07.711Z,1.70
2022-08-30T05:10:11.369Z,1.50
2022-08-30T05:11:07.689Z,1.30
2022-08-30T05:12:07.674Z,1.20
2022-08-30T05:13:07.701Z,1.10
2022-08-30T05:14:07.664Z,1.30
2022-08-30T05:15:07.649Z,1.40
2022-08-30T05:16:07.679Z,1.20
2022-08-30T05:17:07.903Z,1.20
2022-08-30T05:18:07.607Z,1.00
2022-08-30T05:19:07.667Z,1.30
2022-08-30T05:20:07.605Z,1.30
2022-08-30T05:21:07.599Z,1.10
2022-08-30T05:22:07.568Z,1.60
2022-08-30T05:23:07.555Z,1.10
2022-08-30T05:24:07.865Z,1.30
2022-08-30T05:25:07.586Z,1.70
2022-08-30T05:26:07.520Z,1.40
2022-08-30T05:27:07.512Z,1.30
2022-08-30T05:28:07.501Z,1.20
2022-08-30T05:29:07.493Z,1.40
2022-08-30T05:30:07.477Z,1.30
2022-08-30T05:31:07.817Z,1.40
2022-08-30T05:32:07.450Z,1.50
2022-08-30T05:33:07.466Z,1.30
2022-08-30T05:34:07.445Z,1.50
2022-08-30T05:35:07.434Z,1.10
2022-08-30T05:36:07.415Z,1.30
2022-08-30T05:37:07.445Z,1.20
2022-08-30T05:38:07.669Z,1.50
2022-08-30T05:39:07.394Z,1.80
2022-08-30T05:40:10.936Z,1.40
2022-08-30T05:41:10.757Z,1.20
2022-08-30T05:42:07.347Z,1.20
2022-08-30T05:43:07.372Z,1.30
2022-08-30T05:44:07.327Z,1.00
2022-08-30T05:45:07.614Z,1.00
2022-08-30T05:46:07.317Z,1.50
2022-08-30T05:47:07.302Z,1.10
2022-08-30T05:48:07.291Z,1.10
2022-08-30T05:49:07.325Z,1.40
2022-08-30T05:50:07.270Z,1.20
2022-08-30T05:51:07.250Z,1.20
2022-08-30T05:52:07.523Z,1.00
2022-08-30T05:53:07.236Z,1.20
2022-08-30T05:54:07.221Z,1.20
2022-08-30T05:55:07.241Z,1.30
2022-08-30T05:56:07.193Z,1.10
2022-08-30T05:57:07.218Z,1.10
2022-08-30T05:58:07.171Z,1.00
2022-08-30T05:59:07.483Z,1.10
2022-08-30T06:00:07.171Z,1.10
2022-08-30T06:01:07.177Z,1.20
2022-08-30T06:02:07.192Z,1.10
2022-08-30T06:03:07.267Z,1.30
2022-08-30T06:04:07.110Z,1.30
2022-08-30T06:05:07.095Z,0.80
2022-08-30T06:06:07.383Z,1.10
2022-08-30T06:07:09.464Z,1.20
2022-08-30T06:08:07.063Z,1.30
2022-08-30T06:09:07.087Z,1.40
2022-08-30T06:10:07.055Z,1.20
2022-08-30T06:11:07.038Z,1.10
2022-08-30T06:12:07.018Z,1.40
2022-08-30T06:13:07.352Z,1.10
2022-08-30T06:14:07.006Z,1.30
2022-08-30T06:15:07.007Z,1.00
2022-08-30T06:16:07.046Z,0.90
2022-08-30T06:17:06.974Z,1.00
2022-08-30T06:18:06.962Z,1.00
2022-08-30T06:19:06.990Z,1.10
2022-08-30T06:20:07.206Z,1.20
2022-08-30T06:21:06.933Z,1.10
2022-08-30T06:22:06.947Z,1.10
2022-08-30T06:23:06.919Z,1.00
2022-08-30T06:24:06.931Z,0.80
2022-08-30T06:25:06.917Z,0.90
2022-08-30T06:26:06.875Z,0.70
2022-08-30T06:27:07.144Z,0.90
2022-08-30T06:28:06.852Z,0.70
2022-08-30T06:29:06.846Z,0.70
2022-08-30T06:30:06.842Z,1.00
2022-08-30T06:31:06.915Z,0.90
2022-08-30T06:32:06.816Z,0.90
2022-08-30T06:33:06.837Z,0.90
2022-08-30T06:34:07.054Z,0.80
2022-08-30T06:35:06.792Z,1.00
2022-08-30T06:36:06.775Z,1.00
2022-08-30T06:37:06.796Z,1.10
2022-08-30T06:38:06.786Z,1.00
2022-08-30T06:39:06.740Z,0.90
2022-08-30T06:40:06.781Z,1.00
2022-08-30T06:41:07.010Z,1.00
2022-08-30T06:42:06.707Z,1.00
2022-08-30T06:43:06.755Z,0.90
2022-08-30T06:44:06.702Z,0.70
2022-08-30T06:45:11.129Z,0.90
2022-08-30T06:46:06.707Z,1.00
2022-08-30T06:47:06.660Z,0.80
2022-08-30T06:48:06.919Z,1.10
2022-08-30T06:49:07.271Z,0.90
2022-08-30T06:50:06.646Z,0.90
2022-08-30T06:51:06.619Z,0.80
2022-08-30T06:52:06.606Z,1.00
2022-08-30T06:53:06.609Z,0.80
2022-08-30T06:54:06.581Z,0.80
2022-08-30T06:55:06.895Z,0.80
2022-08-30T06:56:06.605Z,0.80
2022-08-30T06:57:06.576Z,0.70
2022-08-30T06:58:06.554Z,1.10
2022-08-30T06:59:06.526Z,0.70
2022-08-30T07:00:06.517Z,0.80
2022-08-30T07:01:06.546Z,0.80
2022-08-30T07:02:06.871Z,0.60
2022-08-30T07:03:06.581Z,1.00
2022-08-30T07:04:06.490Z,0.80
2022-08-30T07:05:06.459Z,0.70
2022-08-30T07:06:06.455Z,0.90
2022-08-30T07:07:06.487Z,0.90
2022-08-30T07:08:06.440Z,0.70
2022-08-30T07:09:06.718Z,0.70
2022-08-30T07:10:06.442Z,0.90
2022-08-30T07:11:06.401Z,0.60
2022-08-30T07:12:06.417Z,0.60
2022-08-30T07:13:06.427Z,0.60
2022-08-30T07:14:06.414Z,0.50
2022-08-30T07:15:06.401Z,0.70
2022-08-30T07:16:06.631Z,0.80
2022-08-30T07:17:06.354Z,0.70
2022-08-30T07:18:06.323Z,0.70
2022-08-30T07:19:06.360Z,0.90
2022-08-30T07:20:06.317Z,0.90
2022-08-30T07:21:06.308Z,0.80
2022-08-30T07:22:06.321Z,0.70
2022-08-30T07:23:06.573Z,0.80
2022-08-30T07:24:08.742Z,0.90
2022-08-30T07:25:06.290Z,0.80
2022-08-30T07:26:06.258Z,0.80
2022-08-30T07:27:06.252Z,0.90
2022-08-30T07:28:06.224Z,1.10
2022-08-30T07:29:06.226Z,1.00
2022-08-30T07:30:06.691Z,1.00
2022-08-30T07:32:06.190Z,0.90
2022-08-30T07:33:06.192Z,1.70
2022-08-30T07:34:06.169Z,1.50
2022-08-30T07:35:06.189Z,0.70
2022-08-30T07:36:06.146Z,1.00
2022-08-30T07:37:06.597Z,0.70
2022-08-30T07:38:06.132Z,0.70
2022-08-30T07:39:06.142Z,0.70
2022-08-30T07:40:06.197Z,0.80
2022-08-30T07:41:06.127Z,0.90
2022-08-30T07:42:06.098Z,0.80
2022-08-30T07:43:06.101Z,3.20
2022-08-30T07:44:07.415Z,0.90
2022-08-30T07:45:06.096Z,0.80
2022-08-30T07:46:06.059Z,0.80
2022-08-30T07:47:06.059Z,0.50
2022-08-30T07:48:06.034Z,0.70
2022-08-30T07:49:11.116Z,0.70
2022-08-30T07:50:06.022Z,0.70
2022-08-30T07:51:06.403Z,0.60
2022-08-30T07:52:05.983Z,0.80
2022-08-30T07:53:08.003Z,0.60
2022-08-30T07:54:05.950Z,0.50
2022-08-30T07:55:06.014Z,0.50
2022-08-30T07:56:05.961Z,0.80
2022-08-30T07:57:05.962Z,0.40
2022-08-30T07:58:06.332Z,0.40
2022-08-30T07:59:05.935Z,0.60
2022-08-30T08:00:05.906Z,0.40
2022-08-30T08:01:05.922Z,0.60
2022-08-30T08:02:05.984Z,0.50
2022-08-30T08:03:05.998Z,0.50
2022-08-30T08:04:06.175Z,0.50
2022-08-30T08:05:05.891Z,0.50
2022-08-30T08:06:05.892Z,0.90
2022-08-30T08:07:05.890Z,0.50
2022-08-30T08:08:05.875Z,0.50
2022-08-30T08:09:05.845Z,0.50
2022-08-30T08:10:05.819Z,0.60
2022-08-30T08:11:05.824Z,0.70
2022-08-30T08:12:05.837Z,1.10
2022-08-30T08:13:05.860Z,0.70
2022-08-30T08:14:05.961Z,0.70
2022-08-30T08:15:08.737Z,0.80
2022-08-30T08:16:06.121Z,0.90
2022-08-30T08:17:05.750Z,0.80
2022-08-30T08:18:05.737Z,0.80
2022-08-30T08:19:05.773Z,0.80
2022-08-30T08:20:05.723Z,0.70
2022-08-30T08:21:05.705Z,0.70
2022-08-30T08:22:21.857Z,0.90
2022-08-30T08:23:05.699Z,0.80
2022-08-30T08:24:05.708Z,0.70
2022-08-30T08:25:05.713Z,0.70
2022-08-30T08:26:05.666Z,0.90
2022-08-30T08:27:05.664Z,0.70
2022-08-30T08:28:05.936Z,1.00
2022-08-30T08:29:05.632Z,0.90
2022-08-30T08:30:05.636Z,0.60
2022-08-30T08:31:05.663Z,0.70
2022-08-30T08:32:05.621Z,0.80
2022-08-30T08:33:05.595Z,0.90
2022-08-30T08:34:06.142Z,0.90
2022-08-30T08:35:05.897Z,0.90
2022-08-30T08:36:09.220Z,0.90
2022-08-30T08:37:05.608Z,0.90
2022-08-30T08:38:05.588Z,0.70
2022-08-30T08:39:05.547Z,1.10
2022-08-30T08:40:05.599Z,0.90
2022-08-30T08:41:05.569Z,0.90
2022-08-30T08:42:05.793Z,0.70
2022-08-30T08:43:05.542Z,0.60
2022-08-30T08:44:05.482Z,0.60
2022-08-30T08:45:10.195Z,0.80
2022-08-30T08:46:05.543Z,1.10
2022-08-30T08:47:05.470Z,0.80
2022-08-30T08:48:05.456Z,0.80
2022-08-30T08:49:05.514Z,0.80
2022-08-30T08:50:05.450Z,0.80
2022-08-30T08:51:05.421Z,0.60
2022-08-30T08:52:05.437Z,0.70
2022-08-30T08:53:05.404Z,0.80
2022-08-30T08:54:05.406Z,0.90
2022-08-30T08:55:05.693Z,0.60
2022-08-30T08:56:05.391Z,0.70
2022-08-30T08:57:05.368Z,0.80
2022-08-30T08:58:05.341Z,0.90
2022-08-30T08:59:05.346Z,0.80
2022-08-30T09:00:05.329Z,0.80
2022-08-30T09:01:06.291Z,1.10
2022-08-30T09:02:05.599Z,0.80
2022-08-30T09:03:05.300Z,0.70
2022-08-30T09:04:05.322Z,0.70
2022-08-30T09:05:05.350Z,0.80
2022-08-30T09:06:05.294Z,0.70
2022-08-30T09:07:05.301Z,0.80
2022-08-30T09:08:09.541Z,0.80
2022-08-30T09:09:05.243Z,0.60
2022-08-30T09:10:05.225Z,0.70
2022-08-30T09:11:05.223Z,0.70
2022-08-30T09:12:05.227Z,0.60
2022-08-30T09:13:05.312Z,0.70
2022-08-30T09:14:05.190Z,1.20
2022-08-30T09:15:05.184Z,0.70
2022-08-30T09:16:05.239Z,0.90
2022-08-30T09:17:05.162Z,0.80
2022-08-30T09:18:05.162Z,0.80
2022-08-30T09:19:05.207Z,1.10
2022-08-30T09:20:05.133Z,1.10
2022-08-30T09:21:05.429Z,0.70
2022-08-30T09:22:05.153Z,0.70
2022-08-30T09:23:05.105Z,0.70
2022-08-30T09:24:05.095Z,0.70
2022-08-30T09:25:05.132Z,1.10
2022-08-30T09:26:05.067Z,0.80
2022-08-30T09:27:05.064Z,0.70
2022-08-30T09:28:05.054Z,0.80
2022-08-30T09:29:05.047Z,0.60
2022-08-30T09:30:05.025Z,0.70
2022-08-30T09:31:07.757Z,0.70
2022-08-30T09:32:24.793Z,0.60
2022-08-30T09:33:05.010Z,0.70
2022-08-30T09:34:04.991Z,0.60
2022-08-30T09:35:04.988Z,0.50
2022-08-30T09:36:04.983Z,0.50
2022-08-30T09:37:05.004Z,0.60
2022-08-30T09:38:04.961Z,0.60
2022-08-30T09:39:05.250Z,0.60
2022-08-30T09:40:04.951Z,0.60
2022-08-30T09:41:04.926Z,0.70
2022-08-30T09:42:04.920Z,0.60
2022-08-30T09:43:04.938Z,0.50
2022-08-30T09:44:04.888Z,0.70
2022-08-30T09:45:04.894Z,0.90
2022-08-30T09:46:05.284Z,0.60
2022-08-30T09:47:04.879Z,0.80
2022-08-30T09:48:04.890Z,0.60
2022-08-30T09:49:05.079Z,0.50
2022-08-30T09:50:04.847Z,0.40
2022-08-30T09:51:04.843Z,0.50
2022-08-30T09:52:05.273Z,0.50
2022-08-30T09:53:05.100Z,0.70
2022-08-30T09:54:17.294Z,0.60
2022-08-30T09:55:04.813Z,0.80
2022-08-30T09:56:04.775Z,0.50
2022-08-30T09:57:04.754Z,0.60
2022-08-30T09:58:04.759Z,0.60
2022-08-30T09:59:04.743Z,0.60
2022-08-30T10:00:05.037Z,0.70
2022-08-30T10:01:04.782Z,0.40
2022-08-30T10:02:04.744Z,0.60
2022-08-30T10:03:04.718Z,0.50
2022-08-30T10:04:04.705Z,0.50
2022-08-30T10:05:04.679Z,0.50
2022-08-30T10:06:04.682Z,0.70
2022-08-30T10:07:04.701Z,0.60
2022-08-30T10:08:04.690Z,1.10
2022-08-30T10:09:04.642Z,0.80
2022-08-30T10:10:04.664Z,1.20
2022-08-30T10:11:04.647Z,0.90
2022-08-30T10:12:04.613Z,1.20
2022-08-30T10:13:04.910Z,1.00
2022-08-30T10:14:04.592Z,1.30
2022-08-30T10:15:04.601Z,1.00
2022-08-30T10:16:04.578Z,0.70
2022-08-30T10:17:04.558Z,0.70
2022-08-30T10:18:04.568Z,0.80
2022-08-30T10:19:06.305Z,0.80
2022-08-30T10:20:04.832Z,1.00
2022-08-30T10:21:04.568Z,0.90
2022-08-30T10:22:04.516Z,1.10
2022-08-30T10:23:04.552Z,0.80
2022-08-30T10:24:04.499Z,0.90
2022-08-30T10:25:04.524Z,1.00
2022-08-30T10:26:04.476Z,0.90
2022-08-30T10:27:05.267Z,0.90
2022-08-30T10:28:04.465Z,0.90
2022-08-30T10:29:04.460Z,0.80
2022-08-30T10:30:04.430Z,0.90
2022-08-30T10:31:04.455Z,1.00
2022-08-30T10:32:04.424Z,0.90
2022-08-30T10:33:04.399Z,0.90
2022-08-30T10:34:04.412Z,0.80
2022-08-30T10:35:04.414Z,0.90
2022-08-30T10:36:04.407Z,0.80
2022-08-30T10:37:04.406Z,0.90
2022-08-30T10:38:04.359Z,1.00
2022-08-30T10:39:04.345Z,0.80
2022-08-30T10:40:04.684Z,1.00
2022-08-30T10:41:04.331Z,0.80
2022-08-30T10:42:04.311Z,0.80
2022-08-30T10:43:04.340Z,0.80
2022-08-30T10:44:04.300Z,0.70
2022-08-30T10:45:04.282Z,1.00
2022-08-30T10:46:04.549Z,0.90
2022-08-30T10:47:04.264Z,0.80
2022-08-30T10:48:04.260Z,0.80
2022-08-30T10:49:04.277Z,0.90
2022-08-30T10:50:04.247Z,0.60
2022-08-30T10:51:04.229Z,0.60
2022-08-30T10:52:04.205Z,0.50
2022-08-30T10:53:04.210Z,0.80
2022-08-30T10:54:04.217Z,0.80
2022-08-30T10:55:04.223Z,0.80
2022-08-30T10:56:04.175Z,1.00
2022-08-30T10:57:04.170Z,0.90
2022-08-30T10:58:09.525Z,0.60
2022-08-30T10:59:04.163Z,0.80
2022-08-30T11:00:06.108Z,0.50
2022-08-30T11:01:04.270Z,0.80
2022-08-30T11:02:04.113Z,0.50
2022-08-30T11:03:04.113Z,0.80
2022-08-30T11:04:04.135Z,0.60
2022-08-30T11:05:04.439Z,0.70
2022-08-30T11:06:04.078Z,0.70
2022-08-30T11:07:05.919Z,0.60
2022-08-30T11:08:04.066Z,0.70
2022-08-30T11:09:04.083Z,0.70
2022-08-30T11:10:04.030Z,0.80
2022-08-30T11:11:04.038Z,0.70
2022-08-30T11:12:04.488Z,0.80
2022-08-30T11:13:04.047Z,0.80
2022-08-30T11:14:05.819Z,0.70
2022-08-30T11:15:03.993Z,0.90
2022-08-30T11:16:03.980Z,0.90
2022-08-30T11:17:03.981Z,0.80
2022-08-30T11:18:03.971Z,0.90
2022-08-30T11:19:04.384Z,0.80
2022-08-30T11:20:03.943Z,0.90
2022-08-30T11:21:03.934Z,0.70
2022-08-30T11:22:03.912Z,0.80
2022-08-30T11:23:03.905Z,0.80
2022-08-30T11:24:06.611Z,0.90
2022-08-30T11:25:09.717Z,1.00
2022-08-30T11:26:03.885Z,0.90
2022-08-30T11:27:03.904Z,3.80
2022-08-30T11:28:03.872Z,3.70
2022-08-30T11:29:03.864Z,0.90
2022-08-30T11:30:03.847Z,1.40
2022-08-30T11:31:03.854Z,0.80
2022-08-30T11:32:04.123Z,0.80
2022-08-30T11:33:05.424Z,0.70
2022-08-30T11:34:03.850Z,0.80
2022-08-30T11:35:03.842Z,0.90
2022-08-30T11:36:03.772Z,1.00
2022-08-30T11:37:03.839Z,0.80
2022-08-30T11:38:03.773Z,0.90
2022-08-30T11:39:04.078Z,0.70
2022-08-30T11:40:03.889Z,0.70
2022-08-30T11:41:03.743Z,0.70
2022-08-30T11:42:03.779Z,0.70
2022-08-30T11:43:03.743Z,0.80
2022-08-30T11:44:03.718Z,0.60
2022-08-30T11:45:03.686Z,1.10
2022-08-30T11:46:04.164Z,0.70
2022-08-30T11:47:05.181Z,0.80
2022-08-30T11:48:04.552Z,0.60
2022-08-30T11:49:03.677Z,0.70
2022-08-30T11:50:09.862Z,0.80
2022-08-30T11:51:03.650Z,0.70
2022-08-30T11:53:03.633Z,0.70
2022-08-30T11:54:03.621Z,0.80
2022-08-30T11:55:03.620Z,1.00
2022-08-30T11:56:03.580Z,0.70
2022-08-30T11:57:03.595Z,0.70
2022-08-30T11:58:03.569Z,1.00
2022-08-30T11:59:03.561Z,0.80
2022-08-30T12:00:03.569Z,0.70
2022-08-30T12:01:03.582Z,0.70
2022-08-30T12:02:03.666Z,0.70
2022-08-30T12:03:03.762Z,0.70
2022-08-30T12:04:03.512Z,0.60
2022-08-30T12:05:03.839Z,0.50
2022-08-30T12:06:03.481Z,0.90
2022-08-30T12:07:03.548Z,0.70
2022-08-30T12:08:03.460Z,0.70
2022-08-30T12:09:03.455Z,0.80
2022-08-30T12:10:03.455Z,0.70
2022-08-30T12:11:03.882Z,0.80
2022-08-30T12:12:03.466Z,0.50
2022-08-30T12:13:03.452Z,0.60
2022-08-30T12:14:03.420Z,0.70
2022-08-30T12:15:03.393Z,0.70
2022-08-30T12:16:03.514Z,0.50
2022-08-30T12:17:03.397Z,0.50
2022-08-30T12:18:03.379Z,0.60
2022-08-30T12:19:03.411Z,0.60
2022-08-30T12:20:03.368Z,1.00
2022-08-30T12:21:03.331Z,0.50
2022-08-30T12:22:03.342Z,0.50
2022-08-30T12:23:03.763Z,0.60
2022-08-30T12:24:03.790Z,0.60
2022-08-30T12:25:03.338Z,0.50
2022-08-30T12:26:03.295Z,0.60
2022-08-30T12:27:03.286Z,0.60
2022-08-30T12:28:03.256Z,0.60
2022-08-30T12:29:03.270Z,0.70
2022-08-30T12:30:04.074Z,0.70
2022-08-30T12:31:03.247Z,0.70
2022-08-30T12:32:05.459Z,0.80
2022-08-30T12:33:03.214Z,0.50
2022-08-30T12:34:03.199Z,0.50
2022-08-30T12:35:03.204Z,0.50
2022-08-30T12:36:03.211Z,0.80
2022-08-30T12:37:04.492Z,0.70
2022-08-30T12:38:03.154Z,0.40
2022-08-30T12:39:05.545Z,0.70
2022-08-30T12:40:03.249Z,0.70
2022-08-30T12:41:05.597Z,0.60
2022-08-30T12:42:03.107Z,0.60
2022-08-30T12:43:03.134Z,0.50
2022-08-30T12:44:03.466Z,0.60
2022-08-30T12:45:03.081Z,0.60
2022-08-30T12:46:07.491Z,0.60
2022-08-30T12:47:03.126Z,0.60
2022-08-30T12:48:03.074Z,0.70
2022-08-30T12:49:03.092Z,0.60
2022-08-30T12:50:03.091Z,0.60
2022-08-30T12:51:03.558Z,0.40
2022-08-30T12:52:03.029Z,0.50
2022-08-30T12:53:03.011Z,0.40
2022-08-30T12:54:02.992Z,0.50
2022-08-30T12:55:03.018Z,0.50
2022-08-30T12:56:02.980Z,0.40
2022-08-30T12:57:19.095Z,0.50
2022-08-30T12:58:03.010Z,0.50
2022-08-30T12:59:02.969Z,0.50
2022-08-30T13:00:02.952Z,0.50
2022-08-30T13:01:03.110Z,0.40
2022-08-30T13:02:03.026Z,0.60
2022-08-30T13:03:02.901Z,0.40
2022-08-30T13:04:02.902Z,0.30
2022-08-30T13:05:02.886Z,0.50
2022-08-30T13:06:02.984Z,0.50
2022-08-30T13:07:02.923Z,0.70
2022-08-30T13:08:02.857Z,0.60
2022-08-30T13:09:02.856Z,0.60
2022-08-30T13:10:03.239Z,0.70
2022-08-30T13:11:08.059Z,0.80
2022-08-30T13:12:02.870Z,0.50
2022-08-30T13:13:02.861Z,0.50
2022-08-30T13:14:02.791Z,0.50
2022-08-30T13:15:02.787Z,0.40
2022-08-30T13:16:02.811Z,0.60
2022-08-30T13:17:03.124Z,0.50
2022-08-30T13:18:02.758Z,0.40
2022-08-30T13:19:02.826Z,0.60
2022-08-30T13:20:02.722Z,0.40